North Richland Hills, Texas
Current Conditions -  °F | °C
As of 7:53 AM on Friday 24 Oct 2014 (Local Time) from KFTW Reporting Station
Clear Clear  
Wind Chill: 63°   Ceiling: Unl
Heat Index: 63°   Visibility: 10mi
Dew Point: 55°   Wind: 8mph
Humidity: 75%   Direction: 130°SE
Pressure: 30.13"   Gusts: NA
Location:  32.84°N, 97.23°W
Report Text: KFTW 241253Z 13007KT 10SM CLR 17/13 A3013 RMK AO2 SLP195 T01720128
Loading
Personal Weather Stations






























Interactive Weather Map
Tropical Storm Tracking
New forecast layout! Learn more

10-Day Weather Forecast

Advertisements
Track Severe Weather on mobile